createdAt,value
2022-08-10T00:03:00.414Z,102841.75
2022-08-10T00:06:01.839Z,102836.56
2022-08-10T00:09:04.200Z,102840.13
2022-08-10T00:12:05.911Z,102834.03
2022-08-10T00:15:08.937Z,102836.66
2022-08-10T00:18:10.375Z,102839.34
2022-08-10T00:21:13.196Z,102840.28
2022-08-10T00:24:15.175Z,102828.81
2022-08-10T00:28:00.779Z,102833.25
2022-08-10T00:30:38.538Z,102834.16
2022-08-10T00:33:39.961Z,102832.41
2022-08-10T00:36:41.413Z,102829.75
2022-08-10T00:39:43.235Z,102826.28
2022-08-10T00:42:45.829Z,102831.66
2022-08-10T00:45:47.267Z,102824.72
2022-08-10T00:49:01.542Z,102826.50
2022-08-10T00:52:04.546Z,102831.03
2022-08-10T00:55:06.316Z,102833.69
2022-08-10T00:58:08.650Z,102835.56
2022-08-10T01:02:07.768Z,102837.38
2022-08-10T01:04:58.284Z,102829.44
2022-08-10T01:08:15.069Z,102826.88
2022-08-10T01:12:37.125Z,102827.78
2022-08-10T01:15:22.226Z,102816.22
2022-08-10T01:18:41.723Z,102817.22
2022-08-10T01:22:11.063Z,102825.09
2022-08-10T01:25:21.609Z,102816.25
2022-08-10T01:28:30.787Z,102814.47
2022-08-10T01:31:37.714Z,102814.47
2022-08-10T01:35:10.200Z,102811.06
2022-08-10T01:38:19.186Z,102807.63
2022-08-10T01:41:28.773Z,102809.38
2022-08-10T01:44:52.076Z,102807.69
2022-08-10T01:47:57.232Z,102807.66
2022-08-10T01:51:13.087Z,102805.03
2022-08-10T01:54:19.535Z,102794.41
2022-08-10T01:57:22.337Z,102795.31
2022-08-10T02:00:29.905Z,102805.94
2022-08-10T02:03:31.845Z,102802.41
2022-08-10T02:06:49.953Z,102806.88
2022-08-10T02:09:54.879Z,102805.16
2022-08-10T02:12:58.209Z,102798.94
2022-08-10T02:16:02.740Z,102802.53
2022-08-10T02:19:06.134Z,102803.50
2022-08-10T02:22:36.531Z,102792.94
2022-08-10T02:25:41.327Z,102796.53
2022-08-10T02:28:46.156Z,102800.97
2022-08-10T02:31:49.521Z,102795.69
2022-08-10T02:34:55.617Z,102793.94
2022-08-10T02:38:04.382Z,102796.56
2022-08-10T02:45:02.455Z,102796.63
2022-08-10T02:45:29.047Z,102791.44
2022-08-10T02:48:09.608Z,102795.88
2022-08-10T02:52:07.970Z,102794.16
2022-08-10T02:55:17.829Z,102790.66
2022-08-10T02:58:30.794Z,102781.81
2022-08-10T03:01:41.205Z,102783.56
2022-08-10T03:04:54.916Z,102779.25
2022-08-10T03:08:05.679Z,102781.03
2022-08-10T03:11:09.990Z,102779.38
2022-08-10T03:14:13.457Z,102782.00
2022-08-10T03:17:16.765Z,102776.75
2022-08-10T03:20:38.401Z,102774.06
2022-08-10T03:23:44.256Z,102772.28
2022-08-10T03:26:46.007Z,102773.19
2022-08-10T03:30:31.688Z,102771.38
2022-08-10T03:33:11.505Z,102761.66
2022-08-10T03:36:41.599Z,102773.16
2022-08-10T03:39:34.577Z,102771.38
2022-08-10T03:42:39.217Z,102773.16
2022-08-10T03:45:54.298Z,102767.00
2022-08-10T03:49:01.417Z,102767.88
2022-08-10T03:52:03.280Z,102764.41
2022-08-10T03:55:05.619Z,102759.97
2022-08-10T03:58:07.442Z,102766.16
2022-08-10T04:01:09.922Z,102764.38
2022-08-10T04:04:14.672Z,102763.50
2022-08-10T04:07:19.258Z,102764.41
2022-08-10T04:10:20.745Z,102767.00
2022-08-10T04:13:22.253Z,102758.16
2022-08-10T04:16:23.702Z,102762.56
2022-08-10T04:19:27.092Z,102760.84
2022-08-10T04:22:29.058Z,102760.84
2022-08-10T04:25:30.719Z,102770.56
2022-08-10T04:28:32.654Z,102771.47
2022-08-10T04:31:35.932Z,102769.69
2022-08-10T04:34:40.620Z,102767.03
2022-08-10T04:37:47.583Z,102764.34
2022-08-10T04:40:49.520Z,102770.50
2022-08-10T04:43:50.971Z,102766.91
2022-08-10T04:46:58.552Z,102760.66
2022-08-10T04:50:00.780Z,102766.72
2022-08-10T04:53:04.149Z,102762.28
2022-08-10T04:56:06.037Z,102763.13
2022-08-10T04:59:09.316Z,102764.88
2022-08-10T05:02:30.530Z,102766.56
2022-08-10T05:05:32.264Z,102765.59
2022-08-10T05:08:33.794Z,102764.63
2022-08-10T05:11:35.247Z,102760.16
2022-08-10T05:14:36.699Z,102768.03
2022-08-10T05:17:39.555Z,102778.59
2022-08-10T05:20:41.000Z,102764.41
2022-08-10T05:23:42.429Z,102763.38
2022-08-10T05:26:55.196Z,102770.38
2022-08-10T05:30:07.254Z,102762.25
2022-08-10T05:33:09.233Z,102778.94
2022-08-10T05:36:11.158Z,102777.06
2022-08-10T05:39:14.840Z,102766.31
2022-08-10T05:42:16.714Z,102772.34
2022-08-10T05:45:25.335Z,102766.75
2022-08-10T05:48:53.868Z,102762.91
2022-08-10T05:51:48.348Z,102762.69
2022-08-10T05:54:50.337Z,102757.34
2022-08-10T05:57:52.135Z,102777.38
2022-08-10T06:00:55.904Z,102774.81
2022-08-10T06:03:59.144Z,102775.38
2022-08-10T06:07:01.433Z,102773.41
2022-08-10T06:10:03.988Z,102774.81
2022-08-10T06:13:27.143Z,102767.56
2022-08-10T06:16:34.997Z,102770.44
2022-08-10T06:19:38.925Z,102768.19
2022-08-10T06:22:40.346Z,102766.22
2022-08-10T06:26:10.671Z,102772.53
2022-08-10T06:29:10.914Z,102774.22
2022-08-10T06:32:14.315Z,102778.78
2022-08-10T06:35:17.280Z,102769.72
2022-08-10T06:38:21.457Z,102777.53
2022-08-10T06:41:57.823Z,102774.22
2022-08-10T06:44:54.164Z,102770.72
2022-08-10T06:48:06.089Z,102762.34
2022-08-10T06:51:15.130Z,102773.66
2022-08-10T06:54:21.555Z,102777.72
2022-08-10T06:57:26.401Z,102782.28
2022-08-10T07:00:33.880Z,102782.69
2022-08-10T07:03:42.795Z,102782.78
2022-08-10T07:06:47.676Z,102774.63
2022-08-10T07:09:51.636Z,102781.56
2022-08-10T07:12:57.665Z,102786.13
2022-08-10T07:16:00.801Z,102785.31
2022-08-10T07:19:03.130Z,102780.69
2022-08-10T07:22:06.163Z,102778.31
2022-08-10T07:25:10.618Z,102772.16
2022-08-10T07:28:13.765Z,102772.69
2022-08-10T07:31:56.593Z,102763.31
2022-08-10T07:34:41.432Z,102763.88
2022-08-10T07:37:44.839Z,102771.72
2022-08-10T07:40:48.449Z,102760.31
2022-08-10T07:43:51.658Z,102770.72
2022-08-10T07:46:56.468Z,102769.09
2022-08-10T07:50:05.129Z,102775.75
2022-08-10T07:53:15.822Z,102772.16
2022-08-10T07:56:45.420Z,102780.88
2022-08-10T07:59:45.869Z,102781.28
2022-08-10T08:02:59.540Z,102790.09
2022-08-10T08:06:02.821Z,102793.16
2022-08-10T08:09:07.846Z,102794.41
2022-08-10T08:12:10.517Z,102792.66
2022-08-10T08:16:18.596Z,102785.09
2022-08-10T08:18:41.994Z,102779.56
2022-08-10T08:24:09.126Z,102776.84
2022-08-10T08:25:23.984Z,102781.56
2022-08-10T08:28:27.361Z,102776.44
2022-08-10T08:31:29.968Z,102778.25
2022-08-10T08:34:38.541Z,102771.22
2022-08-10T08:38:33.027Z,102769.69
2022-08-10T08:41:36.583Z,102768.28
2022-08-10T08:45:06.166Z,102775.25
2022-08-10T08:48:11.677Z,102775.66
2022-08-10T08:52:09.227Z,102771.41
2022-08-10T08:56:04.580Z,102766.59
2022-08-10T08:59:30.831Z,102767.44
2022-08-10T09:03:05.805Z,102756.34
2022-08-10T09:06:44.893Z,102762.50
2022-08-10T09:10:20.408Z,102759.81
2022-08-10T09:13:28.244Z,102752.38
2022-08-10T09:16:32.301Z,102755.81
2022-08-10T09:19:46.059Z,102749.03
2022-08-10T09:23:13.861Z,102743.94
2022-08-10T09:26:22.072Z,102735.44
2022-08-10T09:29:29.897Z,102736.34
2022-08-10T09:36:15.541Z,102729.88
2022-08-10T09:36:32.575Z,102734.19
2022-08-10T09:40:12.574Z,102730.50
2022-08-10T09:43:26.647Z,102724.44
2022-08-10T09:46:44.352Z,102713.00
2022-08-10T09:50:05.082Z,102710.78
2022-08-10T09:53:18.897Z,102707.50
2022-08-10T09:56:36.226Z,102704.75
2022-08-10T10:00:01.262Z,102703.44
2022-08-10T10:03:17.392Z,102708.22
2022-08-10T10:06:29.802Z,102699.44
2022-08-10T10:09:36.605Z,102694.28
2022-08-10T10:12:48.728Z,102693.38
2022-08-10T10:16:05.889Z,102688.81
2022-08-10T10:19:10.467Z,102685.06
2022-08-10T10:22:26.602Z,102692.91
2022-08-10T10:26:10.520Z,102679.22
2022-08-10T10:29:57.048Z,102677.94
2022-08-10T10:33:14.627Z,102675.53
2022-08-10T10:36:18.394Z,102669.63
2022-08-10T10:39:24.297Z,102680.59
2022-08-10T10:42:45.217Z,102681.19
2022-08-10T10:46:07.029Z,102665.41
2022-08-10T10:49:45.862Z,102662.72
2022-08-10T10:53:20.868Z,102663.97
2022-08-10T10:56:35.417Z,102661.25
2022-08-10T10:59:55.666Z,102663.13
2022-08-10T11:03:23.376Z,102656.56
2022-08-10T11:06:48.342Z,102664.72
2022-08-10T11:10:04.093Z,102656.78
2022-08-10T11:14:24.341Z,102656.88
2022-08-10T11:17:02.747Z,102650.06
2022-08-10T11:20:17.820Z,102627.97
2022-08-10T11:23:25.783Z,102637.53
2022-08-10T11:26:46.403Z,102635.88
2022-08-10T11:30:02.585Z,102639.47
2022-08-10T11:33:31.001Z,102633.50
2022-08-10T11:36:46.888Z,102624.63
2022-08-10T11:39:48.777Z,102625.19
2022-08-10T11:43:14.523Z,102619.28
2022-08-10T11:46:30.371Z,102616.06
2022-08-10T11:49:55.361Z,102619.31
2022-08-10T11:53:17.031Z,102613.50
2022-08-10T11:56:31.578Z,102608.19
2022-08-10T11:59:35.749Z,102598.91
2022-08-10T12:02:40.823Z,102605.22
2022-08-10T12:05:46.789Z,102602.13
2022-08-10T12:10:05.510Z,102594.69
2022-08-10T12:12:18.665Z,102596.16
2022-08-10T12:15:30.451Z,102592.19
2022-08-10T12:18:46.868Z,102594.19
2022-08-10T12:22:01.051Z,102585.72
2022-08-10T12:25:54.892Z,102590.84
2022-08-10T12:28:49.872Z,102586.50
2022-08-10T12:32:01.685Z,102576.06
2022-08-10T12:35:26.383Z,102564.72
2022-08-10T12:38:44.386Z,102578.16
2022-08-10T12:41:49.801Z,102579.31
2022-08-10T12:45:03.362Z,102578.06
2022-08-10T12:48:11.285Z,102569.91
2022-08-10T12:51:23.042Z,102572.25
2022-08-10T12:54:32.219Z,102562.94
2022-08-10T12:57:36.751Z,102558.03
2022-08-10T13:00:53.832Z,102555.47
2022-08-10T13:04:23.496Z,102550.78
2022-08-10T13:08:24.379Z,102553.53
2022-08-10T13:11:00.383Z,102553.75
2022-08-10T13:14:09.652Z,102544.91
2022-08-10T13:17:13.419Z,102551.16
2022-08-10T13:20:28.272Z,102543.78
2022-08-10T13:23:34.723Z,102535.16
2022-08-10T13:27:11.650Z,102537.09
2022-08-10T13:30:06.532Z,102539.47
2022-08-10T13:33:16.490Z,102527.69
2022-08-10T13:36:41.428Z,102526.88
2022-08-10T13:39:58.270Z,102526.25
2022-08-10T13:43:07.013Z,102521.41
2022-08-10T13:46:22.138Z,102509.63
2022-08-10T13:49:24.645Z,102511.44
2022-08-10T13:52:28.741Z,102501.41
2022-08-10T13:55:48.758Z,102499.22
2022-08-10T13:58:53.665Z,102498.66
2022-08-10T14:01:58.417Z,102492.28
2022-08-10T14:05:02.878Z,102493.97
2022-08-10T14:08:09.653Z,102483.66
2022-08-10T14:11:16.093Z,102491.44
2022-08-10T14:14:19.137Z,102486.56
2022-08-10T14:17:25.567Z,102489.72
2022-08-10T14:20:35.851Z,102481.94
2022-08-10T14:23:52.478Z,102469.66
2022-08-10T14:27:08.717Z,102468.91
2022-08-10T14:30:14.556Z,102461.53
2022-08-10T14:33:19.160Z,102466.34
2022-08-10T14:36:38.028Z,102464.53
2022-08-10T14:39:47.427Z,102458.56
2022-08-10T14:42:52.686Z,102462.13
2022-08-10T14:46:01.371Z,102458.69
2022-08-10T14:49:26.565Z,102458.38
2022-08-10T14:52:27.331Z,102464.28
2022-08-10T14:55:29.302Z,102458.41
2022-08-10T14:58:35.641Z,102454.22
2022-08-10T15:02:00.809Z,102450.19
2022-08-10T15:05:09.023Z,102450.66
2022-08-10T15:08:13.099Z,102439.97
2022-08-10T15:12:15.626Z,102458.50
2022-08-10T15:14:45.929Z,102447.88
2022-08-10T15:17:52.914Z,102449.69
2022-08-10T15:20:58.027Z,102445.78
2022-08-10T15:24:04.660Z,102438.03
2022-08-10T15:27:09.302Z,102433.88
2022-08-10T15:30:13.278Z,102433.13
2022-08-10T15:34:02.653Z,102434.94
2022-08-10T15:36:48.188Z,102433.00
2022-08-10T15:40:24.473Z,102432.72
2022-08-10T15:43:34.504Z,102427.81
2022-08-10T15:46:50.142Z,102426.16
2022-08-10T15:49:58.523Z,102423.13
2022-08-10T15:53:03.127Z,102419.66
2022-08-10T15:56:33.637Z,102424.72
2022-08-10T16:00:03.518Z,102415.22
2022-08-10T16:03:21.940Z,102414.47
2022-08-10T16:06:30.730Z,102416.72
2022-08-10T16:10:23.797Z,102408.41
2022-08-10T16:14:00.707Z,102414.94
2022-08-10T16:16:36.736Z,102414.22
2022-08-10T16:19:47.189Z,102408.69
2022-08-10T16:22:49.561Z,102405.56
2022-08-10T16:25:59.368Z,102399.63
2022-08-10T16:29:09.775Z,102399.91
2022-08-10T16:32:14.003Z,102404.59
2022-08-10T16:35:19.266Z,102400.31
2022-08-10T16:38:23.099Z,102394.25
2022-08-10T16:42:04.567Z,102392.38
2022-08-10T16:45:11.685Z,102393.63
2022-08-10T16:48:16.469Z,102393.16
2022-08-10T16:51:38.814Z,102387.00
2022-08-10T16:54:42.653Z,102378.94
2022-08-10T16:57:55.941Z,102375.81
2022-08-10T17:01:03.693Z,102381.44
2022-08-10T17:04:10.151Z,102382.16
2022-08-10T17:07:15.552Z,102374.53
2022-08-10T17:10:20.318Z,102375.13
2022-08-10T17:13:25.074Z,102375.31
2022-08-10T17:16:36.533Z,102373.31
2022-08-10T17:19:42.526Z,102374.97
2022-08-10T17:22:44.569Z,102375.56
2022-08-10T17:25:50.949Z,102377.22
2022-08-10T17:29:00.060Z,102372.69
2022-08-10T17:32:08.123Z,102380.56
2022-08-10T17:35:14.074Z,102370.75
2022-08-10T17:38:24.290Z,102368.13
2022-08-10T17:41:31.117Z,102364.34
2022-08-10T17:44:37.414Z,102363.78
2022-08-10T17:47:46.959Z,102363.34
2022-08-10T17:50:52.191Z,102359.13
2022-08-10T17:53:58.198Z,102360.47
2022-08-10T17:57:06.240Z,102353.69
2022-08-10T18:00:10.048Z,102369.03
2022-08-10T18:03:25.519Z,102363.09
2022-08-10T18:06:29.671Z,102367.19
2022-08-10T18:09:35.529Z,102367.78
2022-08-10T18:12:46.457Z,102373.19
2022-08-10T18:15:49.810Z,102369.53
2022-08-10T18:18:58.473Z,102370.09
2022-08-10T18:22:05.956Z,102364.69
2022-08-10T18:25:09.234Z,102368.81
2022-08-10T18:28:17.687Z,102367.31
2022-08-10T18:31:22.594Z,102368.84
2022-08-10T18:34:24.739Z,102361.69
2022-08-10T18:37:29.417Z,102369.25
2022-08-10T18:40:36.018Z,102365.50
2022-08-10T18:44:07.146Z,102368.13
2022-08-10T18:47:17.658Z,102363.75
2022-08-10T18:50:49.567Z,102365.41
2022-08-10T18:53:57.403Z,102370.53
2022-08-10T18:57:05.777Z,102375.13
2022-08-10T19:00:15.370Z,102379.19
2022-08-10T19:03:35.736Z,102377.16
2022-08-10T19:07:00.254Z,102371.19
2022-08-10T19:10:20.707Z,102371.97
2022-08-10T19:14:00.596Z,102378.00
2022-08-10T19:17:15.596Z,102370.34
2022-08-10T19:20:35.499Z,102374.47
2022-08-10T19:23:58.514Z,102372.47
2022-08-10T19:27:21.816Z,102370.59
2022-08-10T19:30:28.925Z,102376.63
2022-08-10T19:33:47.629Z,102382.56
2022-08-10T19:37:32.375Z,102381.19
2022-08-10T19:40:46.487Z,102389.19
2022-08-10T19:44:00.480Z,102393.19
2022-08-10T19:47:23.049Z,102392.69
2022-08-10T19:50:39.551Z,102390.97
2022-08-10T19:53:56.566Z,102393.16
2022-08-10T19:57:07.162Z,102391.63
2022-08-10T20:00:21.742Z,102403.66
2022-08-10T20:03:48.882Z,102406.75
2022-08-10T20:06:57.318Z,102401.66
2022-08-10T20:10:11.900Z,102398.31
2022-08-10T20:13:41.169Z,102401.34
2022-08-10T20:16:46.557Z,102401.56
2022-08-10T20:19:58.536Z,102398.06
2022-08-10T20:23:20.634Z,102399.00
2022-08-10T20:26:29.991Z,102401.31
2022-08-10T20:29:58.835Z,102395.66
2022-08-10T20:33:09.465Z,102400.38
2022-08-10T20:36:26.329Z,102395.78
2022-08-10T20:39:41.887Z,102394.72
2022-08-10T20:42:51.397Z,102394.72
2022-08-10T20:46:08.792Z,102392.31
2022-08-10T20:49:28.388Z,102387.09
2022-08-10T20:52:33.524Z,102386.28
2022-08-10T20:55:52.633Z,102398.97
2022-08-10T20:59:37.069Z,102397.34
2022-08-10T21:03:06.820Z,102406.31
2022-08-10T21:06:42.034Z,102399.22
2022-08-10T21:10:11.940Z,102395.72
2022-08-10T21:13:46.936Z,102394.28
2022-08-10T21:17:25.808Z,102402.75
2022-08-10T21:20:59.546Z,102394.19
2022-08-10T21:24:06.237Z,102390.94
2022-08-10T21:27:27.151Z,102389.41
2022-08-10T21:30:39.781Z,102394.19
2022-08-10T21:34:01.518Z,102388.22
2022-08-10T21:37:20.363Z,102393.66
2022-08-10T21:40:43.592Z,102392.84
2022-08-10T21:44:49.397Z,102394.69
2022-08-10T21:48:06.441Z,102389.50
2022-08-10T21:51:24.228Z,102388.88
2022-08-10T21:54:28.454Z,102385.63
2022-08-10T21:57:46.238Z,102389.63
2022-08-10T22:00:56.272Z,102387.03
2022-08-10T22:03:59.761Z,102386.38
2022-08-10T22:07:09.386Z,102381.13
2022-08-10T22:10:13.003Z,102381.38
2022-08-10T22:13:17.797Z,102385.97
2022-08-10T22:16:40.336Z,102387.19
2022-08-10T22:19:45.245Z,102383.00
2022-08-10T22:23:22.296Z,102386.78
2022-08-10T22:27:00.895Z,102385.91
2022-08-10T22:30:04.662Z,102375.16
2022-08-10T22:33:40.228Z,102375.19
2022-08-10T22:36:58.625Z,102376.09
2022-08-10T22:40:12.024Z,102378.69
2022-08-10T22:43:36.715Z,102377.75
2022-08-10T22:46:42.581Z,102379.69
2022-08-10T22:49:44.084Z,102370.84
2022-08-10T22:53:02.828Z,102371.84
2022-08-10T22:56:05.590Z,102380.22
2022-08-10T22:59:08.561Z,102378.88
2022-08-10T23:02:11.941Z,102378.97
2022-08-10T23:05:15.838Z,102381.72
2022-08-10T23:08:30.259Z,102373.22
2022-08-10T23:11:38.076Z,102380.53
2022-08-10T23:14:45.207Z,102376.47
2022-08-10T23:18:04.093Z,102379.13
2022-08-10T23:21:12.115Z,102372.28
2022-08-10T23:24:15.193Z,102369.69
2022-08-10T23:27:39.244Z,102370.84
2022-08-10T23:30:45.091Z,102378.06
2022-08-10T23:33:48.025Z,102380.91
2022-08-10T23:36:51.653Z,102370.47
2022-08-10T23:39:55.062Z,102372.59
2022-08-10T23:42:58.947Z,102368.38
2022-08-10T23:46:04.305Z,102370.44
2022-08-10T23:49:10.162Z,102372.53
2022-08-10T23:52:19.650Z,102371.56
2022-08-10T23:55:24.859Z,102377.81
2022-08-10T23:58:34.235Z,102375.97
